Time;durP1;ratioP1;P1;durP2;ratioP2;P2;SDS_P1;SDS_P2;PMS_P1;PMS_P2;Temp;Humidity;BMP_temperature;BMP_pressure;BME280_temperature;BME280_humidity;BME280_pressure;Samples;Min_cycle;Max_cycle;Signal;HPM_P1;HPM_P2
2021/04/21 00:00:14;;;;;;;8.77;7.90;;;;;;;;;;5082221;28;20258;-83
2021/04/21 00:02:42;;;;;;;11.82;8.02;;;;;;;;;;5082891;28;20228;-83
2021/04/21 00:05:11;;;;;;;11.50;8.15;;;;;;;;;;5083229;28;20185;-83
2021/04/21 00:07:38;;;;;;;12.18;9.63;;;;;;;;;;5082877;28;20250;-82
2021/04/21 00:10:08;;;;;;;9.68;7.55;;;;;;;;;;5083523;28;20189;-82
2021/04/21 00:12:35;;;;;;;9.07;7.07;;;;;;;;;;5082800;28;20312;-82
2021/04/21 00:15:06;;;;;;;8.40;7.60;;;;;;;;;;5083841;28;20648;-82
2021/04/21 00:17:33;;;;;;;8.13;7.25;;;;;;;;;;5083264;28;20260;-82
2021/04/21 00:20:00;;;;;;;8.20;7.40;;;;;;;;;;5084042;28;20257;-82
2021/04/21 00:22:29;;;;;;;8.40;7.60;;;;;;;;;;5084363;28;20229;-82
2021/04/21 00:24:56;;;;;;;7.95;7.15;;;;;;;;;;5083994;28;20268;-82
2021/04/21 00:27:27;;;;;;;8.05;7.25;;;;;;;;;;5083480;28;20205;-83
2021/04/21 00:30:02;;;;;;;10.00;8.05;;;;;;;;;;5083993;28;20207;-82
2021/04/21 00:32:30;;;;;;;8.40;7.57;;;;;;;;;;5085266;28;20252;-82
2021/04/21 00:34:57;;;;;;;10.65;7.47;;;;;;;;;;5085059;28;20226;-82
2021/04/21 00:37:28;;;;;;;7.57;6.85;;;;;;;;;;5083734;28;20201;-82
2021/04/21 00:39:56;;;;;;;7.90;7.10;;;;;;;;;;5080436;28;20192;-83
2021/04/21 00:42:29;;;;;;;8.30;7.28;;;;;;;;;;5084352;28;20213;-82
2021/04/21 00:45:01;;;;;;;7.82;7.07;;;;;;;;;;5088434;28;20230;-81
2021/04/21 00:47:36;;;;;;;7.97;7.05;;;;;;;;;;5088978;28;20197;-81
2021/04/21 00:50:10;;;;;;;7.53;6.88;;;;;;;;;;5088101;28;20201;-81
2021/04/21 00:52:47;;;;;;;7.95;7.13;;;;;;;;;;5088738;28;20670;-81
2021/04/21 00:55:19;;;;;;;7.35;6.65;;;;;;;;;;5089923;28;20189;-81
2021/04/21 00:57:58;;;;;;;7.32;6.57;;;;;;;;;;5089233;28;20261;-82
2021/04/21 01:00:29;;;;;;;7.85;6.30;;;;;;;;;;5089689;28;20208;-81
2021/04/21 01:03:06;;;;;;;6.90;6.30;;;;;;;;;;5090602;28;20347;-83
2021/04/21 01:05:37;;;;;;;7.30;5.95;;;;;;;;;;5074933;28;20212;-83
2021/04/21 01:08:08;;;;;;;11.57;8.02;;;;;;;;;;5072486;28;20190;-83
2021/04/21 01:10:42;;;;;;;7.97;7.18;;;;;;;;;;5073277;28;20633;-82
2021/04/21 01:13:10;;;;;;;7.68;6.15;;;;;;;;;;5075626;28;20225;-83
2021/04/21 01:15:39;;;;;;;6.90;6.22;;;;;;;;;;5075769;28;20189;-82
2021/04/21 01:18:08;;;;;;;10.57;7.30;;;;;;;;;;5076135;28;20181;-83
2021/04/21 01:20:44;;;;;;;8.88;7.93;;;;;;;;;;5075949;28;20186;-83
2021/04/21 01:23:37;;;;;;;9.57;7.53;;;;;;;;;;5075774;28;20220;-82
2021/04/21 01:26:29;;;;;;;11.85;6.50;;;;;;;;;;5075147;28;20189;-82
2021/04/21 01:29:00;;;;;;;6.97;6.30;;;;;;;;;;5076004;28;20189;-83
2021/04/21 01:31:31;;;;;;;7.05;6.35;;;;;;;;;;5076171;28;20651;-81
2021/04/21 01:33:59;;;;;;;6.93;6.30;;;;;;;;;;5075960;28;20228;-82
2021/04/21 01:36:27;;;;;;;6.78;6.05;;;;;;;;;;5075819;28;20279;-82
2021/04/21 01:38:55;;;;;;;7.63;6.85;;;;;;;;;;5075931;28;20189;-82
2021/04/21 01:41:28;;;;;;;8.98;6.78;;;;;;;;;;5075238;28;20221;-83
2021/04/21 01:44:06;;;;;;;6.50;5.82;;;;;;;;;;5075794;28;20201;-82
2021/04/21 01:46:39;;;;;;;7.05;5.82;;;;;;;;;;5075375;28;20185;-83
2021/04/21 01:49:31;;;;;;;8.27;6.60;;;;;;;;;;5075224;28;20192;-82
2021/04/21 01:52:06;;;;;;;7.10;5.35;;;;;;;;;;5075538;28;20224;-82
2021/04/21 01:54:34;;;;;;;5.97;5.47;;;;;;;;;;5075191;28;20671;-83
2021/04/21 01:57:08;;;;;;;8.00;6.85;;;;;;;;;;5074065;28;20194;-82
2021/04/21 01:59:40;;;;;;;8.90;6.45;;;;;;;;;;5074764;28;20205;-83
2021/04/21 02:02:12;;;;;;;9.38;6.38;;;;;;;;;;5074403;28;20217;-83
2021/04/21 02:04:53;;;;;;;6.90;6.18;;;;;;;;;;5075199;28;20188;-82
2021/04/21 02:07:37;;;;;;;6.95;6.25;;;;;;;;;;5074958;28;20822;-82
2021/04/21 02:10:38;;;;;;;9.25;5.85;;;;;;;;;;5074899;28;20197;-83
2021/04/21 02:13:18;;;;;;;6.97;6.28;;;;;;;;;;5074614;28;20225;-82
2021/04/21 02:16:09;;;;;;;7.22;6.53;;;;;;;;;;5074780;28;20205;-82
2021/04/21 02:19:00;;;;;;;7.75;6.35;;;;;;;;;;5074726;28;20182;-82
2021/04/21 02:21:31;;;;;;;7.63;6.30;;;;;;;;;;5072494;28;20223;-83
2021/04/21 02:24:05;;;;;;;7.82;7.05;;;;;;;;;;5073800;28;20185;-81
2021/04/21 02:26:39;;;;;;;7.70;6.82;;;;;;;;;;5072376;28;20644;-82
2021/04/21 02:29:15;;;;;;;8.20;6.80;;;;;;;;;;5074287;28;20258;-82
2021/04/21 02:31:56;;;;;;;8.10;7.30;;;;;;;;;;5074426;28;20229;-82
2021/04/21 02:34:30;;;;;;;8.73;7.38;;;;;;;;;;5074436;28;20221;-82
2021/04/21 02:37:09;;;;;;;8.95;7.95;;;;;;;;;;5074375;28;20188;-83
2021/04/21 02:39:43;;;;;;;9.57;8.57;;;;;;;;;;5073547;28;20216;-82
2021/04/21 02:42:14;;;;;;;9.63;8.30;;;;;;;;;;5074174;28;20221;-84
2021/04/21 02:44:52;;;;;;;9.68;7.95;;;;;;;;;;5073981;28;20571;-81
2021/04/21 02:47:29;;;;;;;9.55;8.65;;;;;;;;;;5073787;28;20780;-82
2021/04/21 02:50:07;;;;;;;14.13;8.63;;;;;;;;;;5074117;28;20195;-82
2021/04/21 02:52:50;;;;;;;10.73;9.32;;;;;;;;;;5073884;28;20225;-82
2021/04/21 02:55:28;;;;;;;10.93;9.75;;;;;;;;;;5072856;28;20602;-81
2021/04/21 02:58:11;;;;;;;11.07;9.93;;;;;;;;;;5073884;28;20185;-82
2021/04/21 03:00:46;;;;;;;12.88;10.60;;;;;;;;;;5072979;28;20193;-82
2021/04/21 03:03:25;;;;;;;13.00;10.38;;;;;;;;;;5073090;28;20224;-82
2021/04/21 03:06:00;;;;;;;13.57;10.05;;;;;;;;;;5073068;28;20189;-81
2021/04/21 03:08:32;;;;;;;11.43;10.32;;;;;;;;;;5072885;28;20189;-82
2021/04/21 03:11:05;;;;;;;11.75;9.40;;;;;;;;;;5073423;28;20643;-81
2021/04/21 03:13:36;;;;;;;11.32;8.57;;;;;;;;;;5072860;28;20209;-82
2021/04/21 03:16:07;;;;;;;10.18;9.18;;;;;;;;;;5072872;28;20186;-82
2021/04/21 03:18:36;;;;;;;12.50;9.48;;;;;;;;;;5072817;28;20186;-82
2021/04/21 03:21:14;;;;;;;12.27;10.07;;;;;;;;;;5073112;28;20208;-82
2021/04/21 03:23:43;;;;;;;14.90;9.93;;;;;;;;;;5072975;28;20185;-82
2021/04/21 03:26:11;;;;;;;11.57;9.13;;;;;;;;;;5072822;28;20216;-81
2021/04/21 03:28:40;;;;;;;11.88;9.50;;;;;;;;;;5073045;28;20239;-82
2021/04/21 03:31:10;;;;;;;11.55;9.70;;;;;;;;;;5072296;28;20639;-82
2021/04/21 03:33:44;;;;;;;10.90;9.63;;;;;;;;;;5072474;28;20258;-81
2021/04/21 03:36:12;;;;;;;10.65;9.50;;;;;;;;;;5072348;28;20250;-81
2021/04/21 03:38:39;;;;;;;9.52;8.52;;;;;;;;;;5072343;28;20186;-81
2021/04/21 03:41:06;;;;;;;11.07;8.73;;;;;;;;;;5072596;28;20195;-82
2021/04/21 03:43:33;;;;;;;12.05;10.80;;;;;;;;;;5072533;28;20189;-82
2021/04/21 03:46:01;;;;;;;13.35;10.07;;;;;;;;;;5071895;28;20216;-81
2021/04/21 03:48:28;;;;;;;17.48;9.38;;;;;;;;;;5072939;28;20720;-82
2021/04/21 03:50:57;;;;;;;12.07;10.75;;;;;;;;;;5073094;28;20671;-82
2021/04/21 03:53:29;;;;;;;9.20;8.30;;;;;;;;;;5072060;28;20224;-82
2021/04/21 03:55:57;;;;;;;10.35;8.65;;;;;;;;;;5072002;28;20215;-82
2021/04/21 03:58:27;;;;;;;10.68;8.80;;;;;;;;;;5072057;28;20837;-82
2021/04/21 04:01:00;;;;;;;10.30;8.57;;;;;;;;;;5072873;28;21012;-82
2021/04/21 04:03:29;;;;;;;10.35;8.98;;;;;;;;;;5072742;28;20281;-83
2021/04/21 04:06:05;;;;;;;11.10;8.18;;;;;;;;;;5073588;28;20663;-83
2021/04/21 04:08:39;;;;;;;11.68;9.75;;;;;;;;;;5072803;28;20201;-82
2021/04/21 04:11:07;;;;;;;8.85;7.95;;;;;;;;;;5072400;28;20193;-83
2021/04/21 04:13:36;;;;;;;13.27;11.10;;;;;;;;;;5072651;28;20194;-83
2021/04/21 04:16:03;;;;;;;9.45;8.40;;;;;;;;;;5072299;28;20270;-83
2021/04/21 04:18:31;;;;;;;11.02;9.15;;;;;;;;;;5073076;28;20195;-82
2021/04/21 04:21:00;;;;;;;9.35;8.45;;;;;;;;;;5072691;28;20234;-83
2021/04/21 04:23:30;;;;;;;12.88;9.00;;;;;;;;;;5072641;28;20242;-82
2021/04/21 04:26:01;;;;;;;9.90;8.90;;;;;;;;;;5072281;28;20189;-83
2021/04/21 04:28:28;;;;;;;9.90;8.95;;;;;;;;;;5072868;28;20197;-83
2021/04/21 04:30:56;;;;;;;13.32;9.50;;;;;;;;;;5072678;28;20191;-83
2021/04/21 04:33:24;;;;;;;10.88;9.50;;;;;;;;;;5072540;28;20251;-83
2021/04/21 04:35:52;;;;;;;15.38;11.10;;;;;;;;;;5071774;28;20197;-83
2021/04/21 04:38:20;;;;;;;11.25;10.05;;;;;;;;;;5072435;28;20387;-82
2021/04/21 04:40:50;;;;;;;14.10;9.98;;;;;;;;;;5074274;28;20219;-82
2021/04/21 04:43:19;;;;;;;11.88;9.48;;;;;;;;;;5071697;28;20238;-83
2021/04/21 04:45:56;;;;;;;13.98;10.88;;;;;;;;;;5075371;28;20639;-83
2021/04/21 04:48:29;;;;;;;16.40;11.23;;;;;;;;;;5077072;28;20242;-83
2021/04/21 04:51:02;;;;;;;9.07;8.02;;;;;;;;;;5075684;28;20211;-83
2021/04/21 04:53:31;;;;;;;11.80;10.32;;;;;;;;;;5075797;28;20185;-82
2021/04/21 04:55:59;;;;;;;11.50;9.10;;;;;;;;;;5075812;28;20209;-82
2021/04/21 04:58:28;;;;;;;8.90;8.00;;;;;;;;;;5076957;28;20181;-83
2021/04/21 05:01:03;;;;;;;9.82;8.75;;;;;;;;;;5076248;28;20185;-83
2021/04/21 05:03:35;;;;;;;10.65;9.35;;;;;;;;;;5075325;28;20231;-81
2021/04/21 05:06:04;;;;;;;12.25;8.23;;;;;;;;;;5074781;28;20754;-83
2021/04/21 05:08:41;;;;;;;11.73;9.40;;;;;;;;;;5076838;28;20185;-83
2021/04/21 05:11:12;;;;;;;9.50;8.52;;;;;;;;;;5076623;28;20200;-83
2021/04/21 05:13:41;;;;;;;9.93;8.90;;;;;;;;;;5076129;28;20177;-83
2021/04/21 05:17:13;;;;;;;13.70;9.40;;;;;;;;;;5075744;28;20248;-83
2021/04/21 05:20:25;;;;;;;10.07;9.07;;;;;;;;;;5039777;28;20201;-84
2021/04/21 05:24:03;;;;;;;10.98;9.27;;;;;;;;;;5075415;28;20225;-84
2021/04/21 05:27:10;;;;;;;10.68;9.55;;;;;;;;;;4994175;28;20184;-81
2021/04/21 05:30:14;;;;;;;11.23;10.02;;;;;;;;;;4994111;28;20199;-84
2021/04/21 05:33:39;;;;;;;12.52;9.65;;;;;;;;;;5076224;28;20213;-85
2021/04/21 05:37:06;;;;;;;11.05;9.95;;;;;;;;;;5075791;28;20209;-85
2021/04/21 05:40:30;;;;;;;11.32;9.43;;;;;;;;;;5001114;28;20222;-82
2021/04/21 05:44:04;;;;;;;10.93;9.93;;;;;;;;;;5077418;28;20221;-83
2021/04/21 05:47:04;;;;;;;13.45;11.52;;;;;;;;;;5076272;28;20671;-83
2021/04/21 05:50:13;;;;;;;11.82;10.52;;;;;;;;;;5031766;28;20208;-83
2021/04/21 05:53:19;;;;;;;11.50;10.32;;;;;;;;;;5075855;28;20209;-84
2021/04/21 05:56:46;;;;;;;13.43;12.02;;;;;;;;;;5075874;28;20228;-84
2021/04/21 06:00:07;;;;;;;14.07;11.02;;;;;;;;;;5075670;28;20201;-84
2021/04/21 06:02:36;;;;;;;11.43;10.20;;;;;;;;;;5075862;28;20730;-85
2021/04/21 06:05:11;;;;;;;12.35;10.77;;;;;;;;;;5075192;28;20284;-85
2021/04/21 06:07:38;;;;;;;10.57;9.57;;;;;;;;;;5076356;28;20646;-84
2021/04/21 06:10:30;;;;;;;10.38;9.27;;;;;;;;;;5076082;28;20189;-85
2021/04/21 06:13:01;;;;;;;11.73;10.52;;;;;;;;;;5076278;28;20221;-84
2021/04/21 06:15:29;;;;;;;10.80;9.75;;;;;;;;;;5075651;28;20737;-84
2021/04/21 06:18:00;;;;;;;10.98;9.88;;;;;;;;;;5095303;28;20203;-84
2021/04/21 06:20:36;;;;;;;12.43;11.23;;;;;;;;;;5096682;28;20210;-85
2021/04/21 06:23:09;;;;;;;12.23;10.23;;;;;;;;;;5097388;28;20216;-84
2021/04/21 06:25:37;;;;;;;12.10;10.82;;;;;;;;;;5096870;28;20203;-86
2021/04/21 06:28:16;;;;;;;11.57;10.10;;;;;;;;;;5096941;28;20196;-85
2021/04/21 06:30:45;;;;;;;14.27;10.93;;;;;;;;;;5095975;28;20257;-85
2021/04/21 06:33:15;;;;;;;13.25;10.73;;;;;;;;;;5096352;28;20238;-85
2021/04/21 06:35:43;;;;;;;12.45;11.10;;;;;;;;;;5096449;28;20587;-84
2021/04/21 06:38:11;;;;;;;12.50;10.77;;;;;;;;;;5096849;28;20272;-84
2021/04/21 06:40:41;;;;;;;10.88;9.85;;;;;;;;;;5096566;28;20802;-84
2021/04/21 06:43:08;;;;;;;11.32;10.23;;;;;;;;;;5095014;28;20586;-84
2021/04/21 06:45:37;;;;;;;11.52;9.30;;;;;;;;;;5095692;28;20602;-84
2021/04/21 06:48:08;;;;;;;11.05;10.05;;;;;;;;;;5096536;28;20196;-84
2021/04/21 06:50:38;;;;;;;14.00;12.57;;;;;;;;;;5096053;28;20280;-84
2021/04/21 06:53:07;;;;;;;12.45;11.15;;;;;;;;;;5096571;28;20722;-84
2021/04/21 06:55:35;;;;;;;12.90;11.35;;;;;;;;;;5095678;28;20232;-84
2021/04/21 06:58:14;;;;;;;10.48;9.45;;;;;;;;;;5096828;28;20188;-84
2021/04/21 07:00:41;;;;;;;12.10;10.45;;;;;;;;;;5095728;28;20555;-84
2021/04/21 07:03:08;;;;;;;12.80;11.55;;;;;;;;;;5095917;28;20243;-84
2021/04/21 07:05:39;;;;;;;12.65;11.35;;;;;;;;;;5095616;28;20192;-85
2021/04/21 07:08:08;;;;;;;12.85;11.55;;;;;;;;;;5095346;28;20283;-83
2021/04/21 07:10:37;;;;;;;13.93;12.35;;;;;;;;;;5096374;28;20185;-84
2021/04/21 07:13:07;;;;;;;14.23;11.80;;;;;;;;;;5095744;28;20298;-84
2021/04/21 07:15:35;;;;;;;14.80;12.65;;;;;;;;;;5095701;28;20210;-84
2021/04/21 07:18:03;;;;;;;14.38;12.90;;;;;;;;;;5095670;28;20618;-84
2021/04/21 07:20:31;;;;;;;13.60;12.18;;;;;;;;;;5096064;28;20227;-85
2021/04/21 07:22:59;;;;;;;13.27;11.90;;;;;;;;;;5097436;28;20220;-84
2021/04/21 07:25:26;;;;;;;15.20;12.18;;;;;;;;;;5096473;28;20595;-83
2021/04/21 07:27:55;;;;;;;14.00;12.57;;;;;;;;;;5096283;28;20303;-85
2021/04/21 07:30:27;;;;;;;16.60;14.35;;;;;;;;;;5095694;28;20220;-85
2021/04/21 07:32:54;;;;;;;15.38;13.73;;;;;;;;;;5093899;28;20608;-83
2021/04/21 07:35:24;;;;;;;18.55;15.43;;;;;;;;;;5091709;28;20211;-84
2021/04/21 07:37:52;;;;;;;19.30;15.63;;;;;;;;;;5090706;28;20272;-83
2021/04/21 07:40:32;;;;;;;18.83;15.48;;;;;;;;;;5091015;28;20200;-85
2021/04/21 07:43:10;;;;;;;14.65;12.80;;;;;;;;;;5092160;28;20216;-84
2021/04/21 07:45:50;;;;;;;14.88;13.32;;;;;;;;;;5090639;28;20192;-84
2021/04/21 07:48:50;;;;;;;16.10;14.52;;;;;;;;;;5090813;28;20203;-84
2021/04/21 07:51:47;;;;;;;15.45;13.77;;;;;;;;;;5091009;28;20244;-84
2021/04/21 07:54:28;;;;;;;13.65;12.18;;;;;;;;;;5029443;28;20245;-84
2021/04/21 07:57:03;;;;;;;14.25;12.75;;;;;;;;;;5083508;28;20231;-84
2021/04/21 07:59:33;;;;;;;15.30;13.38;;;;;;;;;;5092128;28;20606;-85
2021/04/21 08:02:18;;;;;;;15.85;14.25;;;;;;;;;;5092374;28;20272;-85
2021/04/21 08:04:55;;;;;;;14.23;12.85;;;;;;;;;;5092311;28;20631;-84
2021/04/21 08:07:38;;;;;;;14.88;13.15;;;;;;;;;;5090133;28;20216;-84
2021/04/21 08:10:21;;;;;;;15.70;14.10;;;;;;;;;;5091968;28;20602;-84
2021/04/21 08:12:50;;;;;;;20.52;15.52;;;;;;;;;;5091605;28;20396;-84
2021/04/21 08:15:20;;;;;;;17.50;15.13;;;;;;;;;;5090900;28;20727;-85
2021/04/21 08:17:56;;;;;;;16.55;14.85;;;;;;;;;;5091227;28;20215;-84
2021/04/21 08:20:32;;;;;;;15.48;13.93;;;;;;;;;;5091302;28;20257;-84
2021/04/21 08:23:01;;;;;;;15.73;14.23;;;;;;;;;;5092210;28;20226;-84
2021/04/21 08:25:29;;;;;;;18.00;14.85;;;;;;;;;;5091786;28;20222;-84
2021/04/21 08:27:57;;;;;;;13.85;12.40;;;;;;;;;;5091339;28;20562;-85
2021/04/21 08:30:25;;;;;;;13.20;11.90;;;;;;;;;;5091835;28;20557;-85
2021/04/21 08:32:53;;;;;;;15.10;13.60;;;;;;;;;;5092353;28;20208;-84
2021/04/21 08:35:20;;;;;;;14.32;12.85;;;;;;;;;;5092496;28;20222;-85
2021/04/21 08:37:47;;;;;;;15.35;13.85;;;;;;;;;;5091866;28;20200;-84
2021/04/21 08:40:17;;;;;;;13.70;12.30;;;;;;;;;;5092708;28;20633;-84
2021/04/21 08:42:52;;;;;;;15.00;13.40;;;;;;;;;;5092068;28;20597;-84
2021/04/21 08:45:19;;;;;;;16.67;15.00;;;;;;;;;;5092254;28;20221;-84
2021/04/21 08:47:47;;;;;;;14.50;12.95;;;;;;;;;;5093999;28;20203;-84
2021/04/21 08:50:16;;;;;;;13.85;12.45;;;;;;;;;;5094406;28;20559;-84
2021/04/21 08:52:48;;;;;;;15.15;13.52;;;;;;;;;;5093947;28;20226;-84
2021/04/21 08:55:17;;;;;;;15.60;14.02;;;;;;;;;;5093118;28;20196;-83
2021/04/21 08:57:45;;;;;;;15.60;13.82;;;;;;;;;;5091918;28;20208;-85
2021/04/21 09:00:15;;;;;;;14.07;12.77;;;;;;;;;;5092742;28;20232;-85
2021/04/21 09:02:43;;;;;;;17.13;12.73;;;;;;;;;;5092194;28;20236;-85
2021/04/21 09:05:12;;;;;;;13.15;11.85;;;;;;;;;;5091232;28;20208;-85
2021/04/21 09:07:39;;;;;;;14.68;13.23;;;;;;;;;;5090640;28;20676;-84
2021/04/21 09:10:08;;;;;;;11.10;10.02;;;;;;;;;;5090930;28;20286;-85
2021/04/21 09:12:35;;;;;;;15.70;12.23;;;;;;;;;;5090859;28;20224;-85
2021/04/21 09:15:03;;;;;;;11.68;10.45;;;;;;;;;;5091593;28;20216;-85
2021/04/21 09:17:31;;;;;;;11.35;10.05;;;;;;;;;;5090794;28;20308;-85
2021/04/21 09:19:59;;;;;;;12.77;11.45;;;;;;;;;;5090623;28;20197;-84
2021/04/21 09:22:26;;;;;;;10.55;9.52;;;;;;;;;;5089646;28;20228;-85
2021/04/21 09:24:59;;;;;;;11.38;9.32;;;;;;;;;;5088022;28;20203;-84
2021/04/21 09:27:33;;;;;;;11.35;10.13;;;;;;;;;;5091214;28;20200;-84
2021/04/21 09:30:11;;;;;;;9.85;8.52;;;;;;;;;;5091097;28;20683;-85
2021/04/21 09:32:47;;;;;;;14.30;9.35;;;;;;;;;;5092951;28;20231;-85
2021/04/21 09:35:22;;;;;;;10.63;9.23;;;;;;;;;;5094504;28;20783;-84
2021/04/21 09:37:49;;;;;;;12.80;9.52;;;;;;;;;;5094243;28;20568;-85
2021/04/21 09:40:42;;;;;;;9.80;8.68;;;;;;;;;;5092135;28;20215;-84
2021/04/21 09:43:13;;;;;;;9.50;8.13;;;;;;;;;;5094117;28;20219;-84
2021/04/21 09:45:43;;;;;;;10.82;8.60;;;;;;;;;;5095007;28;20243;-83
2021/04/21 09:48:13;;;;;;;11.00;9.30;;;;;;;;;;5094695;28;20181;-84
2021/04/21 09:50:44;;;;;;;10.50;7.50;;;;;;;;;;5094730;28;20192;-84
2021/04/21 09:53:22;;;;;;;10.38;8.75;;;;;;;;;;5094820;28;20866;-84
2021/04/21 09:56:08;;;;;;;8.70;7.90;;;;;;;;;;5093628;28;20180;-83
2021/04/21 09:58:39;;;;;;;8.80;7.90;;;;;;;;;;5094177;28;20196;-84
2021/04/21 10:01:24;;;;;;;10.70;8.90;;;;;;;;;;5094525;28;20643;-83
2021/04/21 10:04:13;;;;;;;11.55;7.88;;;;;;;;;;5094025;28;20318;-84
2021/04/21 10:06:44;;;;;;;11.05;8.25;;;;;;;;;;5093647;28;20246;-84
2021/04/21 10:09:31;;;;;;;9.02;8.15;;;;;;;;;;5093859;28;20379;-84
2021/04/21 10:12:16;;;;;;;9.00;7.57;;;;;;;;;;5094545;28;20224;-84
2021/04/21 10:14:45;;;;;;;8.82;7.57;;;;;;;;;;5094694;28;20216;-84
2021/04/21 10:17:12;;;;;;;8.88;8.05;;;;;;;;;;5093686;28;20684;-84
2021/04/21 10:19:41;;;;;;;9.30;8.38;;;;;;;;;;5094005;28;20711;-84
2021/04/21 10:22:12;;;;;;;8.73;7.90;;;;;;;;;;5084956;28;20208;-83
2021/04/21 10:24:40;;;;;;;8.80;7.95;;;;;;;;;;5082610;28;20193;-84
2021/04/21 10:27:08;;;;;;;9.43;6.82;;;;;;;;;;5082002;28;20219;-84
2021/04/21 10:29:37;;;;;;;9.95;6.47;;;;;;;;;;5082131;28;20265;-84
2021/04/21 10:32:05;;;;;;;7.95;6.55;;;;;;;;;;5081687;28;20213;-84
2021/04/21 10:34:33;;;;;;;11.50;6.88;;;;;;;;;;5077061;28;20265;-84
2021/04/21 10:37:01;;;;;;;6.78;6.18;;;;;;;;;;5080332;28;20201;-84
2021/04/21 10:39:34;;;;;;;8.75;6.68;;;;;;;;;;5080986;28;20184;-84
2021/04/21 10:42:11;;;;;;;6.47;5.88;;;;;;;;;;5093282;28;20216;-84
2021/04/21 10:44:43;;;;;;;11.07;8.55;;;;;;;;;;5092585;28;20185;-84
2021/04/21 10:47:14;;;;;;;12.55;7.97;;;;;;;;;;5090558;28;20194;-84
2021/04/21 10:50:01;;;;;;;7.53;6.63;;;;;;;;;;5081525;28;20674;-84
2021/04/21 10:52:37;;;;;;;9.20;7.72;;;;;;;;;;5071739;28;20217;-84
2021/04/21 10:55:50;;;;;;;7.13;6.43;;;;;;;;;;5071396;28;20651;-84
2021/04/21 10:58:17;;;;;;;7.35;6.65;;;;;;;;;;4999952;28;20588;-84
2021/04/21 11:00:47;;;;;;;9.15;7.15;;;;;;;;;;5055768;28;20251;-83
2021/04/21 11:03:16;;;;;;;8.23;7.35;;;;;;;;;;5071404;28;20307;-84
2021/04/21 11:06:03;;;;;;;7.20;6.47;;;;;;;;;;5071746;28;20186;-84
2021/04/21 11:08:51;;;;;;;12.20;8.45;;;;;;;;;;5080859;28;20185;-84
2021/04/21 11:11:35;;;;;;;8.60;7.70;;;;;;;;;;5081548;28;20189;-84
2021/04/21 11:14:02;;;;;;;10.23;8.65;;;;;;;;;;5082381;28;20189;-84
2021/04/21 11:16:38;;;;;;;9.02;8.20;;;;;;;;;;5079723;28;20257;-83
2021/04/21 11:19:27;;;;;;;8.82;7.88;;;;;;;;;;5080192;28;20263;-84
2021/04/21 11:22:30;;;;;;;10.82;9.60;;;;;;;;;;5072603;28;20225;-83
2021/04/21 11:25:28;;;;;;;11.05;9.73;;;;;;;;;;5075416;28;20200;-84
2021/04/21 11:27:58;;;;;;;11.63;8.52;;;;;;;;;;5088566;28;20196;-84
2021/04/21 11:31:00;;;;;;;11.05;8.63;;;;;;;;;;5093776;28;20234;-83
2021/04/21 11:33:52;;;;;;;11.23;9.38;;;;;;;;;;5092943;28;20658;-84
2021/04/21 11:36:53;;;;;;;9.50;8.60;;;;;;;;;;5077121;28;20226;-84
2021/04/21 11:40:01;;;;;;;10.38;9.48;;;;;;;;;;5092817;28;20282;-84
2021/04/21 11:42:42;;;;;;;11.25;9.85;;;;;;;;;;5093473;28;20243;-83
2021/04/21 11:45:25;;;;;;;11.15;10.02;;;;;;;;;;5091893;28;20209;-83
2021/04/21 11:47:55;;;;;;;11.18;9.70;;;;;;;;;;5092724;28;20191;-84
2021/04/21 11:50:31;;;;;;;12.00;9.77;;;;;;;;;;5092805;28;20764;-83
2021/04/21 11:53:12;;;;;;;9.45;8.55;;;;;;;;;;5092948;28;20228;-83
2021/04/21 11:55:48;;;;;;;12.63;9.18;;;;;;;;;;5090291;28;20184;-83
2021/04/21 11:58:17;;;;;;;10.38;9.40;;;;;;;;;;5091249;28;20299;-84
2021/04/21 12:00:48;;;;;;;9.55;8.63;;;;;;;;;;5091974;28;20191;-83
2021/04/21 12:03:18;;;;;;;11.93;9.48;;;;;;;;;;5092022;28;20232;-83
2021/04/21 12:05:46;;;;;;;8.15;7.45;;;;;;;;;;5083820;28;20302;-84
2021/04/21 12:08:16;;;;;;;10.38;8.30;;;;;;;;;;5080049;28;20192;-84
2021/04/21 12:10:44;;;;;;;9.30;8.18;;;;;;;;;;5080127;28;20189;-83
2021/04/21 12:13:26;;;;;;;9.85;8.85;;;;;;;;;;5080333;28;20724;-83
2021/04/21 12:16:00;;;;;;;10.50;8.63;;;;;;;;;;5078626;28;20188;-83
2021/04/21 12:18:35;;;;;;;9.98;8.15;;;;;;;;;;5080816;28;20217;-83
2021/04/21 12:21:05;;;;;;;8.23;7.43;;;;;;;;;;5079763;28;20321;-84
2021/04/21 12:23:36;;;;;;;10.75;8.57;;;;;;;;;;5079769;28;20646;-84
2021/04/21 12:26:05;;;;;;;8.18;7.38;;;;;;;;;;5079470;28;20193;-83
2021/04/21 12:28:46;;;;;;;10.40;7.35;;;;;;;;;;5080706;28;20522;-83
2021/04/21 12:31:14;;;;;;;9.02;8.02;;;;;;;;;;5081136;28;20197;-84
2021/04/21 12:33:42;;;;;;;8.75;7.40;;;;;;;;;;5079716;28;20184;-83
2021/04/21 12:36:09;;;;;;;10.18;9.25;;;;;;;;;;5080331;28;20200;-84
2021/04/21 12:38:38;;;;;;;7.43;6.72;;;;;;;;;;5081244;28;20270;-83
2021/04/21 12:41:16;;;;;;;7.97;6.60;;;;;;;;;;5079519;28;20205;-84
2021/04/21 12:43:43;;;;;;;8.27;7.45;;;;;;;;;;5079787;28;20265;-84
2021/04/21 12:46:16;;;;;;;8.48;7.68;;;;;;;;;;5080055;28;20560;-84
2021/04/21 12:48:49;;;;;;;10.90;8.85;;;;;;;;;;5081366;28;20192;-83
2021/04/21 12:51:23;;;;;;;9.15;7.75;;;;;;;;;;5082038;28;20193;-84
2021/04/21 12:53:51;;;;;;;9.63;7.75;;;;;;;;;;5081198;28;20189;-84
2021/04/21 12:56:18;;;;;;;10.52;9.27;;;;;;;;;;5079337;28;20201;-84
2021/04/21 12:58:47;;;;;;;9.07;8.18;;;;;;;;;;5088989;28;20264;-84
2021/04/21 13:01:22;;;;;;;8.80;7.90;;;;;;;;;;5075848;28;20221;-84
2021/04/21 13:03:59;;;;;;;9.82;8.35;;;;;;;;;;5071390;28;20224;-84
2021/04/21 13:06:41;;;;;;;8.13;7.30;;;;;;;;;;5073216;28;20217;-84
2021/04/21 13:09:12;;;;;;;8.23;7.45;;;;;;;;;;5076004;28;20573;-84
2021/04/21 13:11:40;;;;;;;9.32;7.40;;;;;;;;;;5075437;28;20584;-84
2021/04/21 13:14:09;;;;;;;8.85;8.02;;;;;;;;;;5075920;28;20231;-84
2021/04/21 13:16:39;;;;;;;8.80;7.90;;;;;;;;;;5075612;28;20542;-84
2021/04/21 13:19:26;;;;;;;8.70;7.90;;;;;;;;;;5075593;28;20238;-83
2021/04/21 13:22:02;;;;;;;7.75;7.05;;;;;;;;;;5076527;28;20224;-84
2021/04/21 13:24:37;;;;;;;8.88;8.00;;;;;;;;;;5076127;28;20180;-84
2021/04/21 13:27:05;;;;;;;9.30;6.63;;;;;;;;;;5076059;28;20177;-83
2021/04/21 13:29:34;;;;;;;8.70;7.05;;;;;;;;;;5076288;28;20184;-84
2021/04/21 13:32:09;;;;;;;6.72;6.03;;;;;;;;;;5075569;28;20217;-84
2021/04/21 13:34:37;;;;;;;10.13;7.70;;;;;;;;;;5076251;28;20644;-84
2021/04/21 13:37:04;;;;;;;8.77;7.47;;;;;;;;;;5075820;28;20203;-84
2021/04/21 13:39:31;;;;;;;7.53;6.82;;;;;;;;;;5075492;28;20220;-84
2021/04/21 13:41:58;;;;;;;8.73;7.93;;;;;;;;;;5075418;28;20225;-84
2021/04/21 13:44:25;;;;;;;8.52;7.22;;;;;;;;;;5075661;28;20201;-84
2021/04/21 13:46:52;;;;;;;8.23;7.28;;;;;;;;;;5074897;28;20201;-84
2021/04/21 13:49:20;;;;;;;8.13;7.32;;;;;;;;;;5075449;28;20205;-84
2021/04/21 13:51:47;;;;;;;10.18;9.18;;;;;;;;;;5075469;28;20285;-84
2021/04/21 13:54:15;;;;;;;8.73;7.03;;;;;;;;;;5075432;28;20205;-84
2021/04/21 13:56:42;;;;;;;9.45;6.90;;;;;;;;;;5074978;28;20197;-84
2021/04/21 13:59:11;;;;;;;13.88;9.18;;;;;;;;;;5074791;28;20228;-85
2021/04/21 14:01:38;;;;;;;9.15;8.25;;;;;;;;;;5075162;28;20279;-84
2021/04/21 14:04:06;;;;;;;8.45;7.65;;;;;;;;;;5074848;28;20232;-84
2021/04/21 14:06:34;;;;;;;9.90;7.22;;;;;;;;;;5074428;28;20211;-84
2021/04/21 14:09:01;;;;;;;7.05;6.35;;;;;;;;;;5075249;28;20589;-84
2021/04/21 14:11:28;;;;;;;8.38;7.43;;;;;;;;;;5075575;28;20221;-84
2021/04/21 14:13:55;;;;;;;8.18;7.38;;;;;;;;;;5075392;28;20201;-84
2021/04/21 14:16:22;;;;;;;9.55;7.90;;;;;;;;;;5074829;28;20671;-84
2021/04/21 14:18:49;;;;;;;8.10;7.38;;;;;;;;;;5073823;28;20298;-84
2021/04/21 14:21:15;;;;;;;11.00;8.43;;;;;;;;;;5074527;28;20249;-84
2021/04/21 14:23:43;;;;;;;8.10;7.30;;;;;;;;;;5075422;28;20197;-84
2021/04/21 14:26:10;;;;;;;8.13;7.07;;;;;;;;;;5074478;28;20272;-84
2021/04/21 14:28:39;;;;;;;7.47;6.78;;;;;;;;;;5074596;28;20648;-84
2021/04/21 14:31:06;;;;;;;9.02;8.07;;;;;;;;;;5074545;28;20193;-84
2021/04/21 14:33:33;;;;;;;9.23;7.63;;;;;;;;;;5075223;28;20211;-84
2021/04/21 14:35:59;;;;;;;7.97;7.18;;;;;;;;;;5075402;28;20419;-85
2021/04/21 14:38:26;;;;;;;9.70;8.52;;;;;;;;;;5075312;28;20213;-84
2021/04/21 14:40:54;;;;;;;7.50;6.80;;;;;;;;;;5075125;28;20254;-84
2021/04/21 14:43:22;;;;;;;8.70;7.20;;;;;;;;;;5074774;28;20224;-84
2021/04/21 14:45:49;;;;;;;7.55;6.00;;;;;;;;;;5074126;28;20201;-84
2021/04/21 14:48:16;;;;;;;8.63;7.25;;;;;;;;;;5075508;28;20193;-84
2021/04/21 14:50:43;;;;;;;10.68;7.22;;;;;;;;;;5075320;28;20197;-84
2021/04/21 14:53:10;;;;;;;8.95;7.95;;;;;;;;;;5074848;28;20242;-84
2021/04/21 14:55:38;;;;;;;7.25;6.55;;;;;;;;;;5074308;28;20197;-84
2021/04/21 14:58:06;;;;;;;11.57;7.30;;;;;;;;;;5074643;28;20695;-84
2021/04/21 15:00:33;;;;;;;8.93;8.00;;;;;;;;;;5074923;28;20674;-84
2021/04/21 15:03:00;;;;;;;7.90;7.20;;;;;;;;;;5074577;28;20843;-85
2021/04/21 15:05:27;;;;;;;7.70;6.95;;;;;;;;;;5074273;28;20250;-84
2021/04/21 15:07:54;;;;;;;8.43;6.95;;;;;;;;;;5074394;28;20201;-84
2021/04/21 15:10:22;;;;;;;7.97;7.18;;;;;;;;;;5074766;28;20577;-84
2021/04/21 15:12:51;;;;;;;6.30;5.70;;;;;;;;;;5074981;28;20213;-84
2021/04/21 15:15:21;;;;;;;8.50;7.68;;;;;;;;;;5074349;28;20197;-84